createdAt,value
2023-04-18T04:01:43.802Z,99.90
2023-04-18T04:04:16.130Z,99.90
2023-04-18T04:06:48.040Z,99.90
2023-04-18T04:09:21.888Z,99.90
2023-04-18T04:11:53.635Z,99.90
2023-04-18T04:14:25.410Z,99.90
2023-04-18T04:16:58.428Z,99.90
2023-04-18T04:19:30.117Z,99.90
2023-04-18T04:22:01.767Z,99.90
2023-04-18T04:24:33.409Z,99.90
2023-04-18T04:27:05.065Z,99.90
2023-04-18T04:29:36.752Z,99.90
2023-04-18T04:32:09.853Z,99.90
2023-04-18T04:34:41.700Z,99.90
2023-04-18T04:37:13.485Z,99.90
2023-04-18T04:39:45.338Z,99.90
2023-04-18T04:42:17.078Z,99.90
2023-04-18T04:44:49.187Z,99.90
2023-04-18T04:47:22.313Z,99.90
2023-04-18T04:49:54.029Z,99.90
2023-04-18T04:52:25.695Z,99.90
2023-04-18T04:54:57.405Z,99.90
2023-04-18T04:57:29.025Z,99.90
2023-04-18T05:00:00.723Z,99.90
2023-04-18T05:02:33.902Z,99.90
2023-04-18T05:05:05.993Z,99.90
2023-04-18T05:07:37.666Z,99.90
2023-04-18T05:10:10.280Z,99.90
2023-04-18T05:12:41.950Z,99.90
2023-04-18T05:15:15.047Z,99.90
2023-04-18T05:17:48.129Z,99.90
2023-04-18T05:20:19.818Z,99.90
2023-04-18T05:22:51.538Z,99.90
2023-04-18T05:25:23.185Z,99.90
2023-04-18T05:27:54.859Z,99.90
2023-04-18T05:30:26.503Z,99.90
2023-04-18T05:32:59.626Z,99.90
2023-04-18T05:35:31.446Z,99.90
2023-04-18T05:38:03.168Z,99.90
2023-04-18T05:40:34.942Z,99.90
2023-04-18T05:43:06.694Z,99.90
2023-04-18T05:45:38.333Z,99.90
2023-04-18T05:48:11.418Z,99.90
2023-04-18T05:50:43.086Z,99.90
2023-04-18T05:53:15.167Z,99.90
2023-04-18T05:55:46.838Z,99.90
2023-04-18T05:58:18.517Z,99.90
2023-04-18T06:00:50.250Z,99.90
2023-04-18T06:03:23.507Z,99.90
2023-04-18T06:08:27.696Z,99.90
2023-04-18T06:10:59.358Z,99.90
2023-04-18T06:13:31.064Z,99.90
2023-04-18T06:16:02.746Z,99.90
2023-04-18T06:18:35.791Z,99.90
2023-04-18T06:21:07.454Z,99.90
2023-04-18T06:23:39.210Z,99.90
2023-04-18T06:26:10.923Z,99.90
2023-04-18T06:28:42.578Z,99.90
2023-04-18T06:31:14.306Z,99.90
2023-04-18T06:33:47.381Z,99.90
2023-04-18T06:36:19.070Z,99.90
2023-04-18T06:38:50.781Z,99.90
2023-04-18T06:41:22.477Z,99.90
2023-04-18T06:44:14.571Z,99.90
2023-04-18T06:46:45.806Z,99.90
2023-04-18T06:49:19.141Z,99.90
2023-04-18T06:51:51.399Z,51.00
2023-04-18T06:54:23.093Z,47.90
2023-04-18T06:56:54.774Z,40.60
2023-04-18T06:59:26.940Z,44.70
2023-04-18T07:01:58.656Z,91.50
2023-04-18T07:04:31.708Z,85.30
2023-04-18T07:07:03.344Z,78.70
2023-04-18T07:09:35.019Z,76.10
2023-04-18T07:12:06.841Z,56.10
2023-04-18T07:14:39.017Z,47.10
2023-04-18T07:17:10.763Z,43.80
2023-04-18T07:19:43.882Z,45.10
2023-04-18T07:22:15.531Z,41.60
2023-04-18T07:24:47.229Z,39.20
2023-04-18T07:27:18.944Z,41.50
2023-04-18T07:29:50.603Z,65.20
2023-04-18T07:32:22.547Z,59.40
2023-04-18T07:34:56.436Z,49.80
2023-04-18T07:37:28.191Z,46.30
2023-04-18T07:39:59.839Z,71.20
2023-04-18T07:42:31.494Z,99.90
2023-04-18T07:45:03.615Z,78.20
2023-04-18T07:47:35.376Z,63.10
2023-04-18T07:50:09.578Z,42.10
2023-04-18T07:52:41.242Z,56.60
2023-04-18T07:55:12.966Z,55.50
2023-04-18T07:57:45.944Z,57.80
2023-04-18T08:00:19.145Z,65.80
2023-04-18T08:02:50.967Z,99.90
2023-04-18T08:05:24.215Z,99.90
2023-04-18T08:07:55.896Z,99.90
2023-04-18T08:10:27.793Z,99.90
2023-04-18T08:12:59.478Z,99.90
2023-04-18T08:15:31.147Z,99.90
2023-04-18T08:18:02.881Z,99.90
2023-04-18T08:20:35.877Z,99.90
2023-04-18T08:23:10.399Z,99.90
2023-04-18T08:25:43.951Z,99.90
2023-04-18T08:28:15.666Z,99.90
2023-04-18T08:30:47.322Z,99.90
2023-04-18T08:33:19.021Z,99.90
2023-04-18T08:35:52.312Z,99.90
2023-04-18T08:38:23.986Z,99.90
2023-04-18T08:40:55.744Z,99.90
2023-04-18T08:43:27.451Z,99.90
2023-04-18T08:45:59.410Z,99.90
2023-04-18T08:48:31.163Z,99.90
2023-04-18T08:51:04.720Z,99.90
2023-04-18T08:53:36.436Z,99.90
2023-04-18T08:56:08.256Z,99.90
2023-04-18T08:58:39.986Z,99.90
2023-04-18T09:01:11.687Z,99.90
2023-04-18T09:03:43.507Z,99.90
2023-04-18T09:06:16.873Z,99.90
2023-04-18T09:08:55.547Z,99.90
2023-04-18T09:11:27.649Z,99.90
2023-04-18T09:13:59.386Z,99.90
2023-04-18T09:16:32.795Z,99.90
2023-04-18T09:19:11.546Z,99.90
2023-04-18T09:21:44.717Z,99.90
2023-04-18T09:24:21.313Z,99.90
2023-04-18T09:26:53.530Z,99.90
2023-04-18T09:29:42.024Z,99.90
2023-04-18T09:32:20.413Z,99.90
2023-04-18T09:34:53.354Z,99.90
2023-04-18T09:37:26.395Z,99.90
2023-04-18T09:39:58.122Z,99.90
2023-04-18T09:42:31.074Z,99.90
2023-04-18T09:45:04.543Z,99.90
2023-04-18T09:47:36.318Z,99.90
2023-04-18T09:50:09.232Z,99.90
2023-04-18T09:52:43.016Z,99.90
2023-04-18T09:55:15.882Z,99.90
2023-04-18T09:57:48.089Z,99.90
2023-04-18T10:00:22.084Z,99.90
2023-04-18T10:02:57.432Z,99.90
2023-04-18T10:05:31.648Z,99.90
2023-04-18T10:08:04.894Z,99.90
2023-04-18T10:10:37.928Z,99.90
2023-04-18T10:13:10.554Z,99.90
2023-04-18T10:15:44.081Z,99.90
2023-04-18T10:18:16.108Z,99.90
2023-04-18T10:20:47.774Z,99.90
2023-04-18T10:23:37.051Z,99.90
2023-04-18T10:26:09.025Z,99.90
2023-04-18T10:28:50.484Z,99.90
2023-04-18T10:31:22.526Z,99.90
2023-04-18T10:34:03.822Z,99.90
2023-04-18T10:36:36.719Z,99.90
2023-04-18T10:39:21.554Z,99.90
2023-04-18T10:41:53.255Z,99.90
2023-04-18T10:44:24.913Z,99.90
2023-04-18T10:47:18.776Z,99.90
2023-04-18T10:50:00.572Z,99.90
2023-04-18T10:52:32.271Z,99.90
2023-04-18T10:55:26.850Z,99.90
2023-04-18T10:57:58.567Z,99.90
2023-04-18T11:00:30.255Z,99.90
2023-04-18T11:03:02.654Z,99.90
2023-04-18T11:05:34.668Z,99.90
2023-04-18T11:08:22.321Z,99.90
2023-04-18T11:10:58.474Z,99.90
2023-04-18T11:13:30.233Z,99.90
2023-04-18T11:16:02.090Z,99.90
2023-04-18T11:18:40.135Z,99.90
2023-04-18T11:21:11.811Z,99.90
2023-04-18T11:23:43.530Z,99.90
2023-04-18T11:26:16.568Z,99.90
2023-04-18T11:28:51.025Z,99.90
2023-04-18T11:31:23.003Z,99.90
2023-04-18T11:33:56.358Z,99.90
2023-04-18T11:36:28.144Z,99.90
2023-04-18T11:38:59.822Z,99.90
2023-04-18T11:41:32.861Z,99.90
2023-04-18T11:44:05.827Z,99.90
2023-04-18T11:46:38.067Z,99.90
2023-04-18T11:49:24.661Z,99.90
2023-04-18T11:51:56.480Z,99.90
2023-04-18T11:54:41.041Z,99.90
2023-04-18T11:57:21.193Z,99.90
2023-04-18T11:59:53.582Z,99.90
2023-04-18T12:02:26.279Z,99.90
2023-04-18T12:04:58.853Z,99.90
2023-04-18T12:07:36.069Z,99.90
2023-04-18T12:10:09.151Z,99.90
2023-04-18T12:12:47.119Z,99.90
2023-04-18T12:15:18.915Z,99.90
2023-04-18T12:17:50.694Z,99.90
2023-04-18T12:20:22.432Z,99.90
2023-04-18T12:22:54.114Z,99.90
2023-04-18T12:25:27.378Z,99.90
2023-04-18T12:28:01.928Z,99.90
2023-04-18T12:30:36.872Z,99.90
2023-04-18T12:33:09.387Z,99.90
2023-04-18T12:35:41.164Z,99.90
2023-04-18T12:38:12.870Z,99.90
2023-04-18T12:40:44.576Z,99.90
2023-04-18T12:43:17.780Z,99.90
2023-04-18T12:45:49.548Z,99.90
2023-04-18T12:48:21.225Z,99.90
2023-04-18T12:50:52.909Z,99.90
2023-04-18T12:53:24.582Z,99.90
2023-04-18T12:55:56.260Z,99.90
2023-04-18T12:58:29.353Z,99.90
2023-04-18T13:01:01.142Z,99.90
2023-04-18T13:03:32.960Z,99.90
2023-04-18T13:06:04.953Z,99.90
2023-04-18T13:08:36.900Z,99.90
2023-04-18T13:11:08.614Z,99.90
2023-04-18T13:13:41.716Z,99.90
2023-04-18T13:16:13.428Z,99.90
2023-04-18T13:18:45.144Z,99.90
2023-04-18T13:21:16.848Z,99.90
2023-04-18T13:23:48.528Z,99.90
2023-04-18T13:26:20.308Z,99.90
2023-04-18T13:28:53.326Z,99.90
2023-04-18T13:31:25.582Z,99.90
2023-04-18T13:33:57.775Z,99.90
2023-04-18T13:36:29.648Z,99.90
2023-04-18T13:39:01.735Z,99.90
2023-04-18T13:41:34.622Z,99.90
2023-04-18T13:44:07.659Z,99.90
2023-04-18T13:46:39.337Z,99.90
2023-04-18T13:49:11.001Z,99.90
2023-04-18T13:51:42.669Z,99.90
2023-04-18T13:54:15.109Z,99.90
2023-04-18T13:56:46.821Z,99.90
2023-04-18T13:59:19.823Z,99.90
2023-04-18T14:01:51.773Z,99.90
2023-04-18T14:04:23.668Z,99.90
2023-04-18T14:06:55.510Z,99.90
2023-04-18T14:09:27.250Z,99.90
2023-04-18T14:11:58.902Z,99.90
2023-04-18T14:14:31.987Z,99.90
2023-04-18T14:17:03.655Z,99.90
2023-04-18T14:19:35.464Z,99.90
2023-04-18T14:22:07.181Z,99.90
2023-04-18T14:24:38.912Z,99.90
2023-04-18T14:27:10.593Z,99.90
2023-04-18T14:29:43.621Z,99.90
2023-04-18T14:32:15.266Z,99.90
2023-04-18T14:34:46.932Z,99.90
2023-04-18T14:37:18.622Z,99.90
2023-04-18T14:39:50.338Z,99.90
2023-04-18T14:42:21.998Z,99.90
2023-04-18T14:44:55.021Z,99.90
2023-04-18T14:47:26.706Z,99.90
2023-04-18T14:49:58.460Z,99.90
2023-04-18T14:52:30.164Z,99.90
2023-04-18T14:55:02.029Z,99.90
2023-04-18T14:57:33.881Z,99.90
2023-04-18T15:00:08.541Z,99.90
2023-04-18T15:02:40.556Z,99.90
2023-04-18T15:05:12.658Z,99.90
2023-04-18T15:07:44.359Z,99.90
2023-04-18T15:10:16.074Z,99.90
2023-04-18T15:12:47.825Z,99.90
2023-04-18T15:15:21.022Z,99.90
2023-04-18T15:17:52.789Z,99.90
2023-04-18T15:20:24.484Z,99.90
2023-04-18T15:22:56.153Z,99.90
2023-04-18T15:25:27.854Z,99.90
2023-04-18T15:27:59.531Z,99.90
2023-04-18T15:30:32.575Z,99.90
2023-04-18T15:33:04.314Z,99.90
2023-04-18T15:35:36.187Z,99.90
2023-04-18T15:38:07.885Z,99.90
2023-04-18T15:40:39.653Z,99.90
2023-04-18T15:43:11.358Z,99.90
2023-04-18T15:45:44.465Z,99.90
2023-04-18T15:48:16.327Z,99.90
2023-04-18T15:50:50.249Z,99.90
2023-04-18T15:53:21.968Z,99.90
2023-04-18T15:55:53.677Z,99.90
2023-04-18T15:58:25.337Z,99.90
2023-04-18T16:00:58.388Z,99.90
2023-04-18T16:03:30.285Z,99.90
2023-04-18T16:06:02.334Z,99.90
2023-04-18T16:08:34.067Z,99.90
2023-04-18T16:11:06.393Z,99.90
2023-04-18T16:13:38.446Z,99.90
2023-04-18T16:16:11.701Z,99.90
2023-04-18T16:18:43.411Z,99.90
2023-04-18T16:21:15.072Z,99.90
2023-04-18T16:23:47.739Z,99.90
2023-04-18T16:26:19.400Z,99.90
2023-04-18T16:28:51.057Z,99.90
2023-04-18T16:31:24.109Z,99.90
2023-04-18T16:33:55.880Z,99.90
2023-04-18T16:36:27.647Z,99.90
2023-04-18T16:38:59.664Z,99.90
2023-04-18T16:41:31.367Z,99.90
2023-04-18T16:44:03.178Z,99.90
2023-04-18T16:46:36.270Z,99.90
2023-04-18T16:49:08.038Z,99.90
2023-04-18T16:51:39.744Z,99.90
2023-04-18T16:54:11.520Z,99.90
2023-04-18T16:56:43.225Z,99.90
2023-04-18T16:59:14.924Z,99.90
2023-04-18T17:01:48.092Z,99.90
2023-04-18T17:04:19.806Z,99.90
2023-04-18T17:06:52.092Z,99.90
2023-04-18T17:09:23.919Z,99.90
2023-04-18T17:11:55.590Z,99.90
2023-04-18T17:14:27.254Z,99.90
2023-04-18T17:17:00.295Z,99.90
2023-04-18T17:19:31.973Z,99.90
2023-04-18T17:22:03.664Z,99.90
2023-04-18T17:24:35.343Z,99.90
2023-04-18T17:27:07.006Z,99.90
2023-04-18T17:29:38.773Z,99.90
2023-04-18T17:32:11.888Z,99.90
2023-04-18T17:34:43.592Z,99.90
2023-04-18T17:37:15.255Z,99.90
2023-04-18T17:39:46.947Z,99.90
2023-04-18T17:42:19.065Z,99.90
2023-04-18T17:44:50.749Z,99.90
2023-04-18T17:47:23.843Z,99.90
2023-04-18T17:49:55.578Z,99.90
2023-04-18T17:52:27.236Z,99.90
2023-04-18T17:54:58.984Z,99.90
2023-04-18T17:57:30.663Z,99.90
2023-04-18T18:00:02.348Z,99.90
2023-04-18T18:02:35.427Z,99.90
2023-04-18T18:05:09.103Z,99.90
2023-04-18T18:07:40.823Z,99.90
2023-04-18T18:10:13.325Z,99.90
2023-04-18T18:12:45.012Z,99.90
2023-04-18T18:15:18.046Z,99.90
2023-04-18T18:17:51.116Z,99.90
2023-04-18T18:20:22.826Z,99.90
2023-04-18T18:22:54.496Z,99.90
2023-04-18T18:25:26.170Z,99.90
2023-04-18T18:27:57.833Z,99.90
2023-04-18T18:30:29.543Z,99.90
2023-04-18T18:33:02.638Z,99.90
2023-04-18T18:35:34.330Z,99.90
2023-04-18T18:38:05.992Z,99.90
2023-04-18T18:40:37.735Z,99.90
2023-04-18T18:43:09.383Z,99.90
2023-04-18T18:45:41.050Z,99.90
2023-04-18T18:48:14.234Z,99.90
2023-04-18T18:50:46.045Z,99.90
2023-04-18T18:53:17.719Z,99.90
2023-04-18T18:55:49.392Z,99.90
2023-04-18T18:58:21.072Z,99.90
2023-04-18T19:00:52.778Z,99.90
2023-04-18T19:03:25.958Z,99.90
2023-04-18T19:05:57.743Z,99.90
2023-04-18T19:08:29.483Z,99.90
2023-04-18T19:11:01.169Z,99.90
2023-04-18T19:13:32.825Z,99.90
2023-04-18T19:16:04.998Z,99.90
2023-04-18T19:18:38.156Z,99.90
2023-04-18T19:21:09.817Z,99.90
2023-04-18T19:23:41.480Z,99.90
2023-04-18T19:26:13.143Z,99.90
2023-04-18T19:28:44.879Z,99.90
2023-04-18T19:31:16.531Z,99.90
2023-04-18T19:33:49.761Z,99.90
2023-04-18T19:36:21.405Z,99.90
2023-04-18T19:38:53.067Z,99.90
2023-04-18T19:41:24.701Z,99.90
2023-04-18T19:43:56.367Z,99.90
2023-04-18T19:46:28.061Z,99.90
2023-04-18T19:49:01.098Z,99.90
2023-04-18T19:51:32.746Z,99.90
2023-04-18T19:54:04.484Z,99.90
2023-04-18T19:56:36.116Z,99.90
2023-04-18T19:59:07.809Z,99.90
2023-04-18T20:01:39.498Z,99.90
2023-04-18T20:04:12.707Z,99.90
2023-04-18T20:06:44.447Z,99.90
2023-04-18T20:09:16.307Z,99.90
2023-04-18T20:11:48.395Z,99.90
2023-04-18T20:14:20.101Z,99.90
2023-04-18T20:16:51.825Z,99.90
2023-04-18T20:19:25.030Z,99.90
2023-04-18T20:21:56.712Z,99.90
2023-04-18T20:24:29.300Z,99.90
2023-04-18T20:27:01.212Z,99.90
2023-04-18T20:29:32.879Z,99.90
2023-04-18T20:32:05.104Z,99.90
2023-04-18T20:34:38.154Z,99.90
2023-04-18T20:37:09.819Z,99.90
2023-04-18T20:39:41.508Z,99.90
2023-04-18T20:42:13.156Z,99.90
2023-04-18T20:44:44.838Z,99.90
2023-04-18T20:47:16.541Z,99.90
2023-04-18T20:49:49.602Z,99.90
2023-04-18T20:52:21.271Z,99.90
2023-04-18T20:54:52.929Z,99.90
2023-04-18T20:57:24.597Z,99.90
2023-04-18T20:59:56.253Z,99.90
2023-04-18T21:02:27.996Z,99.90
2023-04-18T21:05:01.087Z,99.90
2023-04-18T21:07:32.712Z,99.90
2023-04-18T21:10:04.916Z,99.90
2023-04-18T21:12:36.551Z,99.90
2023-04-18T21:15:08.991Z,99.90
2023-04-18T21:17:40.715Z,99.90
2023-04-18T21:20:13.791Z,99.90
2023-04-18T21:22:45.438Z,99.90
2023-04-18T21:25:17.245Z,99.90
2023-04-18T21:27:48.894Z,99.90
2023-04-18T21:30:20.909Z,99.90
2023-04-18T21:32:52.576Z,99.90
2023-04-18T21:35:25.753Z,99.90
2023-04-18T21:37:57.393Z,99.90
2023-04-18T21:40:29.133Z,99.90
2023-04-18T21:43:00.782Z,99.90
2023-04-18T21:45:32.494Z,99.90
2023-04-18T21:48:04.988Z,99.90
2023-04-18T21:50:38.059Z,99.90
2023-04-18T21:53:09.710Z,99.90
2023-04-18T21:55:41.433Z,99.90
2023-04-18T21:58:13.722Z,99.90
